createdAt,value
2022-11-16T00:02:12.415Z,58.72
2022-11-16T00:04:39.279Z,53.60
2022-11-16T00:07:08.519Z,50.60
2022-11-16T00:09:35.256Z,55.72
2022-11-16T00:12:10.133Z,51.30
2022-11-16T00:14:36.944Z,61.92
2022-11-16T00:17:04.387Z,61.13
2022-11-16T00:19:34.939Z,60.20
2022-11-16T00:22:01.556Z,61.03
2022-11-16T00:24:28.188Z,61.05
2022-11-16T00:26:56.196Z,66.28
2022-11-16T00:29:26.547Z,60.75
2022-11-16T00:31:57.705Z,58.88
2022-11-16T00:34:25.062Z,50.03
2022-11-16T00:36:54.121Z,58.75
2022-11-16T00:39:23.852Z,53.85
2022-11-16T00:41:51.247Z,59.15
2022-11-16T00:44:18.720Z,61.15
2022-11-16T00:46:45.521Z,60.13
2022-11-16T00:49:12.045Z,59.50
2022-11-16T00:51:38.738Z,57.67
2022-11-16T00:54:08.607Z,52.85
2022-11-16T00:56:37.465Z,57.90
2022-11-16T00:59:04.067Z,53.97
2022-11-16T01:01:30.762Z,59.42
2022-11-16T01:03:57.530Z,43.83
2022-11-16T01:06:24.114Z,51.75
2022-11-16T01:08:51.724Z,49.25
2022-11-16T01:11:43.891Z,53.20
2022-11-16T01:14:11.733Z,47.97
2022-11-16T01:16:38.366Z,44.38
2022-11-16T01:19:06.041Z,45.22
2022-11-16T01:21:34.020Z,46.45
2022-11-16T01:24:01.054Z,40.88
2022-11-16T01:26:28.122Z,40.85
2022-11-16T01:28:54.643Z,48.25
2022-11-16T01:31:21.429Z,44.38
2022-11-16T01:33:48.001Z,41.63
2022-11-16T01:36:17.929Z,39.50
2022-11-16T01:38:47.269Z,32.95
2022-11-16T01:41:24.842Z,35.60
2022-11-16T01:44:33.038Z,32.70
2022-11-16T01:47:14.650Z,35.95
2022-11-16T01:49:49.869Z,34.83
2022-11-16T01:52:26.811Z,36.15
2022-11-16T01:54:55.712Z,35.47
2022-11-16T01:57:34.109Z,25.05
2022-11-16T02:00:06.951Z,27.50
2022-11-16T02:02:33.530Z,30.30
2022-11-16T02:05:03.096Z,27.00
2022-11-16T02:08:31.214Z,28.58
2022-11-16T02:11:47.877Z,28.48
2022-11-16T02:15:03.239Z,23.55
2022-11-16T02:18:11.063Z,29.20
2022-11-16T02:21:40.701Z,31.02
2022-11-16T02:24:43.996Z,25.45
2022-11-16T02:27:52.679Z,29.15
2022-11-16T02:30:21.924Z,30.10
2022-11-16T02:33:09.235Z,30.38
2022-11-16T02:35:54.804Z,30.30
2022-11-16T02:38:32.364Z,25.83
2022-11-16T02:41:11.514Z,29.55
2022-11-16T02:43:57.248Z,24.38
2022-11-16T02:46:40.442Z,29.30
2022-11-16T02:49:18.204Z,23.50
2022-11-16T02:51:48.381Z,28.75
2022-11-16T02:54:20.592Z,26.33
2022-11-16T02:57:02.364Z,32.75
2022-11-16T02:59:43.946Z,23.63
2022-11-16T03:02:46.748Z,27.13
2022-11-16T03:05:40.463Z,26.13
2022-11-16T03:08:18.902Z,26.58
2022-11-16T03:11:17.097Z,28.08
2022-11-16T03:13:47.239Z,27.45
2022-11-16T03:16:25.995Z,24.33
2022-11-16T03:19:00.301Z,26.63
2022-11-16T03:24:21.370Z,21.42
2022-11-16T03:27:15.215Z,22.95
2022-11-16T03:30:04.156Z,25.92
2022-11-16T03:32:53.954Z,29.40
2022-11-16T03:36:18.363Z,24.20
2022-11-16T03:38:50.885Z,22.95
2022-11-16T03:41:23.818Z,25.58
2022-11-16T03:43:53.090Z,22.75
2022-11-16T03:46:21.099Z,25.67
2022-11-16T03:48:47.790Z,24.02
2022-11-16T03:51:17.573Z,23.08
2022-11-16T03:53:44.138Z,25.10
2022-11-16T03:56:10.677Z,24.55
2022-11-16T03:58:37.222Z,24.80
2022-11-16T04:01:04.251Z,27.85
2022-11-16T04:03:30.852Z,43.83
2022-11-16T04:06:19.771Z,24.10
2022-11-16T04:09:05.014Z,29.80
2022-11-16T04:11:50.373Z,28.15
2022-11-16T04:14:42.920Z,26.95
2022-11-16T04:17:35.018Z,28.20
2022-11-16T04:20:20.787Z,23.98
2022-11-16T04:23:30.045Z,33.17
2022-11-16T04:26:00.419Z,26.85
2022-11-16T04:28:34.527Z,29.95
2022-11-16T04:34:11.967Z,29.17
2022-11-16T04:36:57.508Z,25.85
2022-11-16T04:39:24.089Z,29.40
2022-11-16T04:42:09.136Z,29.45
2022-11-16T04:44:55.632Z,32.78
2022-11-16T04:47:22.254Z,37.03
2022-11-16T04:49:48.944Z,30.80
2022-11-16T04:52:15.865Z,37.35
2022-11-16T04:54:42.648Z,34.15
2022-11-16T04:57:09.300Z,36.00
2022-11-16T04:59:35.832Z,35.60
2022-11-16T05:02:08.285Z,35.20
2022-11-16T05:04:44.401Z,40.50
2022-11-16T05:07:17.782Z,39.88
2022-11-16T05:09:48.803Z,36.80
2022-11-16T05:12:42.613Z,35.30
2022-11-16T05:15:10.079Z,39.35
2022-11-16T05:17:36.901Z,39.83
2022-11-16T05:20:22.552Z,37.33
2022-11-16T05:22:58.064Z,37.88
2022-11-16T05:25:26.790Z,38.40
2022-11-16T05:27:54.150Z,36.90
2022-11-16T05:30:23.316Z,34.50
2022-11-16T05:32:49.932Z,36.70
2022-11-16T05:35:17.153Z,41.10
2022-11-16T05:37:43.758Z,37.78
2022-11-16T05:40:11.840Z,39.33
2022-11-16T05:42:41.331Z,35.42
2022-11-16T05:45:08.565Z,38.80
2022-11-16T05:47:35.262Z,36.35
2022-11-16T05:50:01.944Z,38.58
2022-11-16T05:52:28.620Z,38.20
2022-11-16T05:54:55.156Z,31.33
2022-11-16T05:57:21.634Z,44.25
2022-11-16T05:59:48.272Z,35.42
2022-11-16T06:02:18.717Z,43.05
2022-11-16T06:04:45.511Z,39.47
2022-11-16T06:07:12.132Z,39.30
2022-11-16T06:09:38.783Z,43.78
2022-11-16T06:12:05.831Z,34.33
2022-11-16T06:14:32.436Z,34.95
2022-11-16T06:16:59.074Z,40.50
2022-11-16T06:19:31.063Z,40.22
2022-11-16T06:21:58.881Z,41.42
2022-11-16T06:24:25.631Z,40.33
2022-11-16T06:26:52.265Z,45.55
2022-11-16T06:29:18.980Z,44.50
2022-11-16T06:31:45.708Z,49.22
2022-11-16T06:34:12.271Z,50.67
2022-11-16T06:36:38.951Z,44.88
2022-11-16T06:39:05.590Z,42.83
2022-11-16T06:41:32.809Z,45.60
2022-11-16T06:43:59.653Z,48.67
2022-11-16T06:46:26.356Z,48.50
2022-11-16T06:48:53.059Z,42.83
2022-11-16T06:51:19.647Z,49.20
2022-11-16T06:53:48.832Z,48.30
2022-11-16T06:56:16.651Z,44.67
2022-11-16T06:58:43.283Z,55.05
2022-11-16T07:01:12.980Z,48.90
2022-11-16T07:03:40.104Z,48.05
2022-11-16T07:06:13.107Z,43.75
2022-11-16T07:08:40.358Z,40.85
2022-11-16T07:11:10.416Z,43.65
2022-11-16T07:13:39.380Z,43.78
2022-11-16T07:16:11.503Z,47.17
2022-11-16T07:18:42.147Z,37.20
2022-11-16T07:21:16.343Z,35.83
2022-11-16T07:23:43.941Z,46.83
2022-11-16T07:26:11.693Z,42.20
2022-11-16T07:28:42.084Z,35.97
2022-11-16T07:31:15.815Z,46.35
2022-11-16T07:33:42.570Z,46.17
2022-11-16T07:36:14.979Z,36.67
2022-11-16T07:38:41.781Z,40.53
2022-11-16T07:41:15.462Z,45.63
2022-11-16T07:43:42.283Z,47.85
2022-11-16T07:46:45.477Z,43.45
2022-11-16T07:49:11.174Z,51.70
2022-11-16T07:51:38.209Z,37.42
2022-11-16T07:54:08.323Z,38.97
2022-11-16T07:56:34.901Z,45.28
2022-11-16T07:59:01.612Z,40.80
2022-11-16T08:01:28.468Z,40.28
2022-11-16T08:03:55.219Z,40.08
2022-11-16T08:06:27.587Z,43.33
2022-11-16T08:08:58.318Z,36.95
2022-11-16T08:11:26.630Z,43.38
2022-11-16T08:13:53.559Z,33.75
2022-11-16T08:16:23.598Z,39.67
2022-11-16T08:18:50.739Z,36.70
2022-11-16T08:21:19.540Z,32.30
2022-11-16T08:23:46.893Z,43.80
2022-11-16T08:26:21.856Z,33.60
2022-11-16T08:28:53.930Z,36.53
2022-11-16T08:31:26.684Z,28.25
2022-11-16T08:33:53.698Z,36.25
2022-11-16T08:36:21.453Z,28.80
2022-11-16T08:38:51.839Z,30.17
2022-11-16T08:41:20.444Z,34.83
2022-11-16T08:43:47.639Z,27.60
2022-11-16T08:46:18.634Z,30.20
2022-11-16T08:48:46.166Z,28.55
2022-11-16T08:51:19.575Z,26.15
2022-11-16T08:53:48.874Z,20.00
2022-11-16T08:56:18.777Z,27.55
2022-11-16T08:58:47.215Z,28.02
2022-11-16T09:01:19.718Z,27.60
2022-11-16T09:03:47.458Z,23.98
2022-11-16T09:06:15.894Z,25.48
2022-11-16T09:08:45.974Z,27.08
2022-11-16T09:11:18.671Z,26.85
2022-11-16T09:13:50.982Z,26.27
2022-11-16T09:16:20.996Z,21.98
2022-11-16T09:18:54.126Z,28.08
2022-11-16T09:21:30.152Z,24.73
2022-11-16T09:24:00.269Z,21.63
2022-11-16T09:26:27.604Z,26.23
2022-11-16T09:29:03.163Z,28.98
2022-11-16T09:31:34.740Z,28.80
2022-11-16T09:34:02.726Z,23.20
2022-11-16T09:36:30.406Z,25.60
2022-11-16T09:42:19.633Z,24.30
2022-11-16T09:45:04.934Z,26.75
2022-11-16T09:47:44.765Z,23.75
2022-11-16T09:50:31.504Z,25.58
2022-11-16T09:53:33.745Z,23.52
2022-11-16T09:56:17.800Z,23.65
2022-11-16T09:59:08.040Z,23.55
2022-11-16T10:01:48.797Z,22.60
2022-11-16T10:04:43.815Z,20.48
2022-11-16T10:09:47.816Z,23.55
2022-11-16T10:12:46.399Z,22.65
2022-11-16T10:15:50.487Z,22.55
2022-11-16T10:18:55.695Z,25.85
2022-11-16T10:22:15.745Z,26.58
2022-11-16T10:24:59.304Z,29.92
2022-11-16T10:27:55.033Z,27.95
2022-11-16T10:30:22.957Z,27.73
2022-11-16T10:33:10.950Z,28.80
2022-11-16T10:35:51.951Z,27.67
2022-11-16T10:38:30.251Z,27.90
2022-11-16T10:41:22.511Z,25.67
2022-11-16T10:43:49.616Z,44.97
2022-11-16T10:46:39.563Z,27.13
2022-11-16T10:49:54.360Z,27.15
2022-11-16T10:52:21.094Z,28.23
2022-11-16T10:54:47.794Z,28.33
2022-11-16T10:57:14.699Z,27.15
2022-11-16T10:59:50.018Z,29.23
2022-11-16T11:02:36.974Z,29.48
2022-11-16T11:05:17.793Z,33.60
2022-11-16T11:08:11.284Z,30.23
2022-11-16T11:10:42.143Z,26.52
2022-11-16T11:13:26.719Z,23.98
2022-11-16T11:18:42.849Z,28.30
2022-11-16T11:21:25.979Z,29.70
2022-11-16T11:24:16.094Z,25.52
2022-11-16T11:26:58.059Z,24.02
2022-11-16T11:29:32.889Z,27.08
2022-11-16T11:32:20.833Z,25.95
2022-11-16T11:34:54.781Z,26.08
2022-11-16T11:37:35.592Z,26.73
2022-11-16T11:40:25.372Z,25.38
2022-11-16T11:42:53.376Z,24.02
2022-11-16T11:45:49.331Z,25.52
2022-11-16T11:48:47.805Z,23.30
2022-11-16T11:51:34.991Z,23.48
2022-11-16T11:54:07.196Z,23.80
2022-11-16T11:56:34.601Z,20.70
2022-11-16T11:59:04.782Z,22.05
2022-11-16T12:02:19.221Z,21.30
2022-11-16T12:05:43.138Z,20.48
2022-11-16T12:09:10.397Z,15.95
2022-11-16T12:12:11.812Z,17.85
2022-11-16T12:15:37.434Z,16.98
2022-11-16T12:18:34.888Z,17.92
2022-11-16T12:21:48.151Z,19.05
2022-11-16T12:24:48.159Z,18.60
2022-11-16T12:28:25.205Z,17.95
2022-11-16T12:31:31.955Z,19.80
2022-11-16T12:34:52.372Z,15.90
2022-11-16T12:38:28.904Z,18.05
2022-11-16T12:41:22.821Z,14.82
2022-11-16T12:44:10.593Z,18.35
2022-11-16T12:47:43.552Z,14.07
2022-11-16T12:50:45.971Z,15.18
2022-11-16T12:53:51.094Z,16.35
2022-11-16T12:57:29.227Z,19.58
2022-11-16T13:00:20.348Z,14.95
2022-11-16T13:03:38.285Z,14.02
2022-11-16T13:06:39.894Z,15.20
2022-11-16T13:09:36.003Z,17.05
2022-11-16T13:12:15.265Z,13.95
2022-11-16T13:14:51.306Z,14.38
2022-11-16T13:17:32.755Z,15.25
2022-11-16T13:20:27.148Z,14.38
2022-11-16T13:23:11.328Z,12.73
2022-11-16T13:25:52.204Z,18.17
2022-11-16T13:28:43.329Z,14.30
2022-11-16T13:31:38.363Z,13.00
2022-11-16T13:36:57.707Z,14.07
2022-11-16T13:40:00.897Z,12.70
2022-11-16T13:42:30.667Z,12.82
2022-11-16T13:45:22.241Z,15.23
2022-11-16T13:47:57.899Z,14.32
2022-11-16T13:50:38.864Z,11.93
2022-11-16T13:56:10.438Z,12.85
2022-11-16T13:58:47.604Z,13.68
2022-11-16T14:01:16.605Z,17.17
2022-11-16T14:03:51.539Z,11.25
2022-11-16T14:06:24.211Z,12.00
2022-11-16T14:09:00.848Z,12.63
2022-11-16T14:11:39.099Z,12.00
2022-11-16T14:14:12.906Z,12.32
2022-11-16T14:16:51.899Z,15.20
2022-11-16T14:19:49.341Z,12.32
2022-11-16T14:23:02.029Z,12.45
2022-11-16T14:25:45.351Z,14.18
2022-11-16T14:28:58.927Z,13.10
2022-11-16T14:31:31.952Z,13.50
2022-11-16T14:34:00.943Z,12.13
2022-11-16T14:36:44.267Z,13.15
2022-11-16T14:39:43.437Z,12.95
2022-11-16T14:43:15.428Z,13.70
2022-11-16T14:45:54.921Z,14.52
2022-11-16T14:48:28.290Z,16.58
2022-11-16T14:51:38.292Z,16.33
2022-11-16T14:54:56.918Z,15.52
2022-11-16T14:57:24.720Z,15.15
2022-11-16T15:00:18.612Z,16.52
2022-11-16T15:03:02.339Z,18.80
2022-11-16T15:05:36.457Z,17.13
2022-11-16T15:08:23.545Z,15.70
2022-11-16T15:10:52.597Z,20.73
2022-11-16T15:13:28.044Z,17.58
2022-11-16T15:16:56.965Z,19.13
2022-11-16T15:19:28.428Z,17.35
2022-11-16T15:22:01.688Z,16.63
2022-11-16T15:24:33.022Z,16.63
2022-11-16T15:27:32.442Z,15.85
2022-11-16T15:30:04.733Z,18.88
2022-11-16T15:32:37.953Z,20.67
2022-11-16T15:35:20.445Z,18.40
2022-11-16T15:37:47.712Z,22.42
2022-11-16T15:40:15.509Z,23.88
2022-11-16T15:42:44.115Z,21.10
2022-11-16T15:45:24.786Z,16.50
2022-11-16T15:48:00.518Z,18.00
2022-11-16T15:50:28.612Z,17.60
2022-11-16T15:52:57.004Z,17.80
2022-11-16T15:55:40.509Z,13.23
2022-11-16T15:58:26.354Z,17.63
2022-11-16T16:00:55.586Z,15.85
2022-11-16T16:03:27.241Z,17.63
2022-11-16T16:05:55.811Z,14.82
2022-11-16T16:08:33.419Z,14.85
2022-11-16T16:11:28.436Z,15.18
2022-11-16T16:16:40.901Z,11.60
2022-11-16T16:19:42.929Z,11.68
2022-11-16T16:22:32.564Z,13.23
2022-11-16T16:25:01.466Z,14.65
2022-11-16T16:27:32.170Z,11.60
2022-11-16T16:30:05.902Z,10.93
2022-11-16T16:32:37.552Z,9.60
2022-11-16T16:35:17.707Z,10.63
2022-11-16T16:37:44.631Z,11.48
2022-11-16T16:40:11.509Z,11.70
2022-11-16T16:42:38.413Z,11.60
2022-11-16T16:45:05.922Z,8.63
2022-11-16T16:47:33.115Z,8.75
2022-11-16T16:49:59.724Z,8.43
2022-11-16T16:52:27.744Z,7.50
2022-11-16T16:54:54.321Z,12.13
2022-11-16T16:57:20.964Z,9.80
2022-11-16T16:59:48.436Z,11.27
2022-11-16T17:02:17.021Z,10.85
2022-11-16T17:04:46.409Z,17.65
2022-11-16T17:07:13.285Z,26.25
2022-11-16T17:09:40.035Z,9.23
2022-11-16T17:12:06.953Z,9.88
2022-11-16T17:14:33.568Z,9.18
2022-11-16T17:17:00.264Z,8.27
2022-11-16T17:19:29.644Z,10.88
2022-11-16T17:21:56.608Z,8.38
2022-11-16T17:24:23.358Z,9.05
2022-11-16T17:26:50.571Z,8.52
2022-11-16T17:29:17.732Z,9.02
2022-11-16T17:31:47.797Z,7.60
2022-11-16T17:34:14.695Z,13.75
2022-11-16T17:36:43.263Z,10.77
2022-11-16T17:39:09.961Z,8.20
2022-11-16T17:41:37.504Z,9.85
2022-11-16T17:44:05.348Z,8.98
2022-11-16T17:46:32.471Z,8.75
2022-11-16T17:48:59.153Z,17.88
2022-11-16T17:51:27.785Z,7.43
2022-11-16T17:53:54.433Z,8.73
2022-11-16T17:56:27.040Z,8.20
2022-11-16T17:58:55.649Z,7.60
2022-11-16T18:01:23.259Z,7.93
2022-11-16T18:03:50.575Z,14.50
2022-11-16T18:06:25.050Z,10.20
2022-11-16T18:08:53.465Z,11.05
2022-11-16T18:11:25.337Z,7.68
2022-11-16T18:14:00.437Z,9.25
2022-11-16T18:16:33.034Z,8.68
2022-11-16T18:19:08.800Z,7.85
2022-11-16T18:21:41.565Z,8.05
2022-11-16T18:24:09.811Z,7.70
2022-11-16T18:26:37.538Z,7.95
2022-11-16T18:29:04.825Z,7.70
2022-11-16T18:31:33.752Z,7.82
2022-11-16T18:34:02.726Z,7.25
2022-11-16T18:36:29.403Z,6.65
2022-11-16T18:38:56.176Z,6.90
2022-11-16T18:41:28.933Z,8.00
2022-11-16T18:44:01.701Z,6.03
2022-11-16T18:46:32.629Z,7.13
2022-11-16T18:49:00.543Z,10.93
2022-11-16T18:51:29.333Z,7.10
2022-11-16T18:54:01.855Z,6.15
2022-11-16T18:56:28.500Z,7.80
2022-11-16T18:58:57.884Z,5.93
2022-11-16T19:01:27.739Z,6.75
2022-11-16T19:03:56.616Z,6.68
2022-11-16T19:06:24.020Z,7.03
2022-11-16T19:09:03.830Z,5.53
2022-11-16T19:11:30.604Z,5.72
2022-11-16T19:14:00.795Z,4.85
2022-11-16T19:16:28.024Z,10.02
2022-11-16T19:18:54.692Z,4.85
2022-11-16T19:21:22.455Z,4.65
2022-11-16T19:23:55.898Z,4.72
2022-11-16T19:26:27.372Z,7.43
2022-11-16T19:28:54.691Z,5.13
2022-11-16T19:31:27.391Z,6.93
2022-11-16T19:34:05.076Z,5.53
2022-11-16T19:36:35.926Z,5.45
2022-11-16T19:39:05.066Z,5.75
2022-11-16T19:41:32.347Z,9.55
2022-11-16T19:44:01.705Z,6.22
2022-11-16T19:46:32.691Z,6.10
2022-11-16T19:49:00.611Z,5.88
2022-11-16T19:51:33.325Z,11.95
2022-11-16T19:54:02.437Z,5.63
2022-11-16T19:56:29.829Z,5.72
2022-11-16T19:58:58.841Z,5.75
2022-11-16T20:01:29.437Z,6.05
2022-11-16T20:04:02.204Z,6.85
2022-11-16T20:06:36.782Z,5.80
2022-11-16T20:09:11.242Z,6.43
2022-11-16T20:11:44.201Z,10.07
2022-11-16T20:14:14.321Z,4.68
2022-11-16T20:16:46.654Z,5.65
2022-11-16T20:19:14.448Z,4.85
2022-11-16T20:21:43.443Z,4.90
2022-11-16T20:24:17.835Z,5.45
2022-11-16T20:26:48.904Z,7.55
2022-11-16T20:29:19.455Z,4.75
2022-11-16T20:31:47.156Z,6.35
2022-11-16T20:34:20.323Z,4.35
2022-11-16T20:36:50.625Z,4.47
2022-11-16T20:39:21.042Z,4.25
2022-11-16T20:41:48.377Z,10.23
2022-11-16T20:44:24.723Z,14.52
2022-11-16T20:46:52.622Z,5.53
2022-11-16T20:49:19.339Z,5.20
2022-11-16T20:51:49.491Z,6.82
2022-11-16T20:54:16.259Z,3.88
2022-11-16T20:56:44.535Z,10.82
2022-11-16T20:59:11.140Z,5.22
2022-11-16T21:01:37.754Z,5.18
2022-11-16T21:04:06.297Z,5.40
2022-11-16T21:06:33.779Z,4.97
2022-11-16T21:09:01.223Z,4.22
2022-11-16T21:11:51.950Z,4.22
2022-11-16T21:14:20.059Z,5.85
2022-11-16T21:16:49.232Z,5.97
2022-11-16T21:19:16.030Z,4.78
2022-11-16T21:21:45.760Z,3.90
2022-11-16T21:24:12.653Z,5.28
2022-11-16T21:26:39.429Z,4.82
2022-11-16T21:29:09.563Z,4.70
2022-11-16T21:31:37.251Z,3.92
2022-11-16T21:34:05.804Z,4.22
2022-11-16T21:36:34.891Z,4.10
2022-11-16T21:39:01.844Z,5.45
2022-11-16T21:41:28.686Z,3.70
2022-11-16T21:43:55.646Z,4.18
2022-11-16T21:46:26.147Z,4.18
2022-11-16T21:48:56.327Z,4.07
2022-11-16T21:51:28.019Z,4.00
2022-11-16T21:53:55.427Z,4.13
2022-11-16T21:56:26.064Z,4.13
2022-11-16T21:58:54.294Z,5.70
2022-11-16T22:01:23.715Z,7.57
2022-11-16T22:04:11.035Z,3.88
2022-11-16T22:06:56.865Z,3.42
2022-11-16T22:09:23.710Z,6.22
2022-11-16T22:11:50.547Z,4.25
2022-11-16T22:14:28.546Z,4.65
2022-11-16T22:16:58.268Z,4.07
2022-11-16T22:19:24.908Z,4.65
2022-11-16T22:21:51.494Z,3.95
2022-11-16T22:24:18.221Z,3.67
2022-11-16T22:26:47.511Z,5.40
2022-11-16T22:29:16.602Z,3.70
2022-11-16T22:31:43.412Z,3.78
2022-11-16T22:34:09.999Z,5.05
2022-11-16T22:36:36.587Z,5.95
2022-11-16T22:39:03.460Z,4.22
2022-11-16T22:41:30.122Z,3.97
2022-11-16T22:43:56.812Z,4.18
2022-11-16T22:46:23.555Z,7.20
2022-11-16T22:48:50.292Z,3.40
2022-11-16T22:51:27.761Z,4.63
2022-11-16T22:54:00.476Z,4.53
2022-11-16T22:56:31.010Z,3.95
2022-11-16T22:58:58.684Z,7.13
2022-11-16T23:01:25.481Z,4.57
2022-11-16T23:03:52.502Z,5.28
2022-11-16T23:06:19.193Z,4.45
2022-11-16T23:08:45.943Z,8.75
2022-11-16T23:11:39.236Z,4.80
2022-11-16T23:14:29.867Z,40.13
2022-11-16T23:16:57.031Z,4.07
2022-11-16T23:19:43.800Z,4.55
2022-11-16T23:22:40.737Z,4.43
2022-11-16T23:25:30.584Z,4.88
2022-11-16T23:28:14.531Z,5.05
2022-11-16T23:30:41.650Z,4.40
2022-11-16T23:33:10.916Z,7.03
2022-11-16T23:35:37.995Z,4.95
2022-11-16T23:38:07.677Z,4.50
2022-11-16T23:40:39.424Z,3.92
2022-11-16T23:43:28.972Z,5.13
2022-11-16T23:45:55.644Z,4.30
2022-11-16T23:48:22.250Z,4.22
2022-11-16T23:50:48.865Z,4.43
2022-11-16T23:53:18.155Z,5.05
2022-11-16T23:55:44.822Z,5.25
2022-11-16T23:58:15.096Z,4.93
